map of MUI home
MUI - Airport
Location
City:  Fort Indiantown Gap, Pennsylvania, United States
Near (Alt.):Annville
Name:Muir AAF Airport
Old (Alt.):Fort Indiantown Gap
ICAO:KMUI
IATA:MUI
FAA LID:MUI

Details
Type:Airport (Airfield)
Use:Military
Latitude:4026'07"N (40.435236)
Longitude:7634'07"W (-76.568627)
Datum:WGS 1984
Elevation:487 ft (148 m)
Variation:11.44W (WMM2015 magnetic declination)
0.01 annual change
Runways:1
Longest:3978 × 98 ft (1212 × 30 m), paved

Time
Time Zone:UTC-5 (DST-4)
Local Time:

Weather
METAR:KMUI 230900Z AUTO 00000KT 10SM -RA SCT013 BKN023 OVC031 20/20 A2995 RMK AO2 CIG 012V023 SLP142 $

Related Locations
Nearby:
Farthest:YAUG: 11670 mi / 18780 km
Augusta [Augusta Airport], WA, AU

Find:

   beyond  
but within

Other Information
Maps:
NOTAMs:
Links:
Sources:

  
  • flag of United States
  • flag of Pennsylvania
  

Sectional Chart

Flight Planning
at skyvector.com

Satellite Image

Google Maps Satellite view

 

Copyright © 2004-2018 Karl L. Swartz. All rights reserved.
The Great Circle Mapper name and logo are trademarks of the Great Circle Mapper.
All other trademarks mentioned herein belong to their respective owners.
Please see credits for attibutions and further copyright information.

  Follow gcmap on Facebook Follow gcmap on Twitter Follow gcmap on Google+ GCmap on LinkedIn

hCard Microformat

Geo Microformat